Commodore Goodwill — C6NU8 — position and weather

sailwx.info

Track history (hours):
 
Tides and Currents Weather Stations Pressure Air Temp Water Temp Dewpoint Dewpoint Depression Visibility Wind Speed Wind Dir Waves Ship Positions

Commodore Goodwill

Operator: Condor Marine Services

Last reported at 2019-Nov-11 21:30 UTC. Time now 2019-Nov-11 22:31 UTC.
Position N 50°35' W 001°10'.

Length 126 m; draft 5.3 m.

Type: Ship (hazmat cat C). MMSI: 309536000.

Date/timePositionNaut miles runAvg speedWind from/ knotsBaromVisibWave heightAir tempDewpointWater temp
2019-Nov-11 21:30N 50°35' W 001°10'816.1
2019-Nov-11 21:00N 50°42' W 001°03'7 3.0
2019-Nov-11 18:31N 50°49' W 001°06'0 0.0
2019-Nov-11 17:30N 50°49' W 001°06'2 4.3
2019-Nov-11 17:01N 50°47' W 001°06'714.8
2019-Nov-11 16:30N 50°39' W 001°05'3218.2
2019-Nov-11 14:47N 50°13' W 001°31'2916.1
2019-Nov-11 13:00N 49°49' W 001°57'1813.7
2019-Nov-11 11:40N 49°32' W 002°07'2116.1
2019-Nov-11 10:23N 49°13' W 002°20'16 2.3
2019-Nov-11 03:31N 49°27' W 002°32'4 3.7
2019-Nov-11 02:30N 49°26' W 002°26'712.6
2019-Nov-11 01:59N 49°30' W 002°18'1812.2
2019-Nov-11 00:31N 49°45' W 002°03'013.7
2019-Nov-11 00:30N 49°45' W 002°03'1313.0
2019-Nov-10 23:30N 49°56' W 001°53'1716.5
2019-Nov-10 22:30N 50°10' W 001°39'2514.6
2019-Nov-10 20:48N 50°30' W 001°15'20 8.6
2019-Nov-10 18:30N 50°49' W 001°06'0 0.0
2019-Nov-10 16:00N 50°49' W 001°06'0 0.0
2019-Nov-10 09:00N 50°49' W 001°06'3510.2
2019-Nov-10 05:33N 50°16' W 001°26'1610.5
2019-Nov-10 04:00N 50°03' W 001°43'32 6.6
2019-Nov-09 23:08N 49°35' W 002°06'512.0
2019-Nov-09 22:42N 49°32' W 002°13'13 0.7
2019-Nov-09 03:31N 49°27' W 002°32'0 0.0
2019-Nov-09 03:00N 49°27' W 002°32'9 8.9
2019-Nov-09 01:57N 49°31' W 002°18'1812.1
2019-Nov-09 00:29N 49°45' W 002°02'1414.7
2019-Nov-08 23:31N 49°57' W 001°50'2315.2
2019-Nov-08 22:00N 50°16' W 001°29'1816.1
2019-Nov-08 20:54N 50°30' W 001°14'616.2
2019-Nov-08 20:30N 50°36' W 001°08'13 4.3
2019-Nov-08 17:30N 50°49' W 001°06'0 0.0
2019-Nov-08 16:30N 50°49' W 001°06'8915.2
2019-Nov-08 10:38N 49°31' W 002°13'37 3.3
2019-Nov-07 23:30N 50°03' W 001°44'816.8
2019-Nov-07 23:00N 50°11' W 001°39'2816.3
2019-Nov-07 21:16N 50°34' W 001°12'9 1.5
2019-Nov-07 15:30N 50°40' W 001°04'5315.0
2019-Nov-07 12:01N 49°57' W 001°51'40 4.7
2019-Nov-07 03:30N 49°27' W 002°32'0 0.0
2019-Nov-07 03:01N 49°27' W 002°32'4 7.4
2019-Nov-07 02:30N 49°26' W 002°26'8415.3
2019-Nov-06 21:00N 50°34' W 001°10'7 1.3
2019-Nov-06 15:30N 50°40' W 001°04'917.2
2019-Nov-06 15:00N 50°33' W 001°11'2015.3
2019-Nov-06 13:40N 50°16' W 001°29'615.3
2019-Nov-06 13:16N 50°11' W 001°35'57 6.9
2019-Nov-06 05:01N 49°27' W 002°32'0 0.1
2019-Nov-06 04:00N 49°27' W 002°32'2610.3
2019-Nov-06 01:31N 49°45' W 002°02'2314.9
2019-Nov-06 00:01N 50°03' W 001°43'3318.5
2019-Nov-05 22:14N 50°31' W 001°15'19 5.0
2019-Nov-05 18:30N 50°49' W 001°06'0 0.0
2019-Nov-05 18:00N 50°49' W 001°06'0 0.0
2019-Nov-05 17:30N 50°49' W 001°06'16 6.4
2019-Nov-05 15:00N 50°33' W 001°11'3718.7
2019-Nov-05 13:01N 50°02' W 001°43'3318.8
2019-Nov-05 11:16N 49°34' W 002°09'518.0
2019-Nov-05 11:00N 49°29' W 002°12'13 1.7
2019-Nov-05 03:30N 49°27' W 002°32'3812.6
2019-Nov-05 00:30N 49°52' W 001°47'714.5
2019-Nov-05 00:00N 49°57' W 001°38'1515.0
2019-Nov-04 23:00N 50°10' W 001°28'4111.8
2019-Nov-04 19:30N 50°49' W 001°06'87 9.1
2019-Nov-04 09:55N 49°33' W 002°13'20 4.0
2019-Nov-04 04:54N 49°16' W 002°29'12 6.3
2019-Nov-04 03:01N 49°27' W 002°32'19 7.8
2019-Nov-04 00:32N 49°38' W 002°07'811.7
2019-Nov-03 23:53N 49°45' W 002°02'3012.6
2019-Nov-03 21:31N 50°08' W 001°32'815.1
2019-Nov-03 21:01N 50°15' W 001°27'37 9.2
2019-Nov-03 17:00N 50°49' W 001°06'0 0.0
2019-Nov-03 15:00N 50°49' W 001°06'0 0.0
2019-Nov-03 14:30N 50°49' W 001°06'0 0.0
2019-Nov-03 13:30N 50°49' W 001°06'0 0.0
2019-Nov-03 10:00N 50°49' W 001°06'0 0.0
2019-Nov-03 08:00N 50°49' W 001°06'8 5.3
2019-Nov-03 06:30N 50°41' W 001°03'713.5
2019-Nov-03 06:01N 50°36' W 001°09'6414.1
2019-Nov-03 01:27N 49°42' W 002°05'22 1.1
2019-Nov-02 06:00N 49°22' W 002°21'9 8.7
2019-Nov-02 05:00N 49°27' W 002°32'10 3.3
2019-Nov-02 01:59N 49°31' W 002°17'1715.4
2019-Nov-02 00:53N 49°45' W 002°02'615.6
2019-Nov-02 00:30N 49°49' W 001°57'815.0
2019-Nov-02 00:00N 49°55' W 001°50'714.4
2019-Nov-01 23:30N 50°01' W 001°44'612.4
2019-Nov-01 23:00N 50°06' W 001°38'612.8
2019-Nov-01 22:30N 50°12' W 001°33'714.4
2019-Nov-01 22:01N 50°17' W 001°26'  
Track history (hours):
 
Tides and Currents Weather Stations Pressure Air Temp Water Temp Dewpoint Dewpoint Depression Visibility Wind Speed Wind Dir Waves Ship Positions

Commodore Goodwill

Operator: Condor Marine Services

Last reported at 2019-Nov-11 21:30 UTC. Time now 2019-Nov-11 22:31 UTC.
Position N 50°35' W 001°10'.

Length 126 m; draft 5.3 m.

Type: Ship (hazmat cat C). MMSI: 309536000.

Date/timePositionNaut miles runAvg speedWind from/ knotsBaromVisibWave heightAir tempDewpointWater temp
2019-Nov-11 21:30N 50°35' W 001°10'816.1
2019-Nov-11 21:00N 50°42' W 001°03'7 3.0
2019-Nov-11 18:31N 50°49' W 001°06'0 0.0
2019-Nov-11 17:30N 50°49' W 001°06'2 4.3
2019-Nov-11 17:01N 50°47' W 001°06'714.8
2019-Nov-11 16:30N 50°39' W 001°05'3218.2
2019-Nov-11 14:47N 50°13' W 001°31'2916.1
2019-Nov-11 13:00N 49°49' W 001°57'1813.7
2019-Nov-11 11:40N 49°32' W 002°07'2116.1
2019-Nov-11 10:23N 49°13' W 002°20'16 2.3
2019-Nov-11 03:31N 49°27' W 002°32'4 3.7
2019-Nov-11 02:30N 49°26' W 002°26'712.6
2019-Nov-11 01:59N 49°30' W 002°18'1812.2
2019-Nov-11 00:31N 49°45' W 002°03'013.7
2019-Nov-11 00:30N 49°45' W 002°03'1313.0
2019-Nov-10 23:30N 49°56' W 001°53'1716.5
2019-Nov-10 22:30N 50°10' W 001°39'2514.6
2019-Nov-10 20:48N 50°30' W 001°15'20 8.6
2019-Nov-10 18:30N 50°49' W 001°06'0 0.0
2019-Nov-10 16:00N 50°49' W 001°06'0 0.0
2019-Nov-10 09:00N 50°49' W 001°06'3510.2
2019-Nov-10 05:33N 50°16' W 001°26'1610.5
2019-Nov-10 04:00N 50°03' W 001°43'32 6.6
2019-Nov-09 23:08N 49°35' W 002°06'512.0
2019-Nov-09 22:42N 49°32' W 002°13'13 0.7
2019-Nov-09 03:31N 49°27' W 002°32'0 0.0
2019-Nov-09 03:00N 49°27' W 002°32'9 8.9
2019-Nov-09 01:57N 49°31' W 002°18'1812.1
2019-Nov-09 00:29N 49°45' W 002°02'1414.7
2019-Nov-08 23:31N 49°57' W 001°50'2315.2
2019-Nov-08 22:00N 50°16' W 001°29'1816.1
2019-Nov-08 20:54N 50°30' W 001°14'616.2
2019-Nov-08 20:30N 50°36' W 001°08'13 4.3
2019-Nov-08 17:30N 50°49' W 001°06'0 0.0
2019-Nov-08 16:30N 50°49' W 001°06'8915.2
2019-Nov-08 10:38N 49°31' W 002°13'37 3.3
2019-Nov-07 23:30N 50°03' W 001°44'816.8
2019-Nov-07 23:00N 50°11' W 001°39'2816.3
2019-Nov-07 21:16N 50°34' W 001°12'9 1.5
2019-Nov-07 15:30N 50°40' W 001°04'5315.0
2019-Nov-07 12:01N 49°57' W 001°51'40 4.7
2019-Nov-07 03:30N 49°27' W 002°32'0 0.0
2019-Nov-07 03:01N 49°27' W 002°32'4 7.4
2019-Nov-07 02:30N 49°26' W 002°26'8415.3
2019-Nov-06 21:00N 50°34' W 001°10'7 1.3
2019-Nov-06 15:30N 50°40' W 001°04'917.2
2019-Nov-06 15:00N 50°33' W 001°11'2015.3
2019-Nov-06 13:40N 50°16' W 001°29'615.3
2019-Nov-06 13:16N 50°11' W 001°35'57 6.9
2019-Nov-06 05:01N 49°27' W 002°32'0 0.1
2019-Nov-06 04:00N 49°27' W 002°32'2610.3
2019-Nov-06 01:31N 49°45' W 002°02'2314.9
2019-Nov-06 00:01N 50°03' W 001°43'3318.5
2019-Nov-05 22:14N 50°31' W 001°15'19 5.0
2019-Nov-05 18:30N 50°49' W 001°06'0 0.0
2019-Nov-05 18:00N 50°49' W 001°06'0 0.0
2019-Nov-05 17:30N 50°49' W 001°06'16 6.4
2019-Nov-05 15:00N 50°33' W 001°11'3718.7
2019-Nov-05 13:01N 50°02' W 001°43'3318.8
2019-Nov-05 11:16N 49°34' W 002°09'518.0
2019-Nov-05 11:00N 49°29' W 002°12'13 1.7
2019-Nov-05 03:30N 49°27' W 002°32'3812.6
2019-Nov-05 00:30N 49°52' W 001°47'714.5
2019-Nov-05 00:00N 49°57' W 001°38'1515.0
2019-Nov-04 23:00N 50°10' W 001°28'4111.8
2019-Nov-04 19:30N 50°49' W 001°06'87 9.1
2019-Nov-04 09:55N 49°33' W 002°13'20 4.0
2019-Nov-04 04:54N 49°16' W 002°29'12 6.3
2019-Nov-04 03:01N 49°27' W 002°32'19 7.8
2019-Nov-04 00:32N 49°38' W 002°07'811.7
2019-Nov-03 23:53N 49°45' W 002°02'3012.6
2019-Nov-03 21:31N 50°08' W 001°32'815.1
2019-Nov-03 21:01N 50°15' W 001°27'37 9.2
2019-Nov-03 17:00N 50°49' W 001°06'0 0.0
2019-Nov-03 15:00N 50°49' W 001°06'0 0.0
2019-Nov-03 14:30N 50°49' W 001°06'0 0.0
2019-Nov-03 13:30N 50°49' W 001°06'0 0.0
2019-Nov-03 10:00N 50°49' W 001°06'0 0.0
2019-Nov-03 08:00N 50°49' W 001°06'8 5.3
2019-Nov-03 06:30N 50°41' W 001°03'713.5
2019-Nov-03 06:01N 50°36' W 001°09'6414.1
2019-Nov-03 01:27N 49°42' W 002°05'22 1.1
2019-Nov-02 06:00N 49°22' W 002°21'9 8.7
2019-Nov-02 05:00N 49°27' W 002°32'10 3.3
2019-Nov-02 01:59N 49°31' W 002°17'1715.4
2019-Nov-02 00:53N 49°45' W 002°02'615.6
2019-Nov-02 00:30N 49°49' W 001°57'815.0
2019-Nov-02 00:00N 49°55' W 001°50'714.4
2019-Nov-01 23:30N 50°01' W 001°44'612.4
2019-Nov-01 23:00N 50°06' W 001°38'612.8
2019-Nov-01 22:30N 50°12' W 001°33'714.4
2019-Nov-01 22:01N 50°17' W 001°26'  

Dump ship's entire track history